Terminal Aerodrome Forecast
Issued by NWS

Home | Current Version | Previous Version | Text Only | Print | Product List | Glossary On
Versions: 1 2 3 4 5 6 7 8 9 10 11 12 13 14 15
000
FTUS45 KRIW 041130
TAFWRL
TAF
KWRL 041130Z 0412/0512 VRB06KT P6SM FEW120
     FM042230 20014G22KT P6SM FEW120
     FM050300 22010G18KT P6SM VCTS SCT100CB
     FM050700 VRB06KT P6SM FEW120=

USA.gov is the U.S. government's official web portal to all federal, state and local government web resources and services.